sensor_id;sensor_type;location;lat;lon;timestamp;temperature;humidity
51613;DHT22;37694;51.748;14.326;2024-03-23T00:51:11;24.20;44.60
51613;DHT22;37694;51.748;14.326;2024-03-23T00:53:37;24.20;44.50
51613;DHT22;37694;51.748;14.326;2024-03-23T00:56:02;24.20;44.50
51613;DHT22;37694;51.748;14.326;2024-03-23T00:58:29;24.10;44.20
51613;DHT22;37694;51.748;14.326;2024-03-23T01:00:54;24.10;44.30
51613;DHT22;37694;51.748;14.326;2024-03-23T01:03:20;24.10;44.30
51613;DHT22;37694;51.748;14.326;2024-03-23T01:05:46;24.10;44.40
51613;DHT22;37694;51.748;14.326;2024-03-23T01:08:11;24.10;44.20
51613;DHT22;37694;51.748;14.326;2024-03-23T01:10:37;24.10;44.70
51613;DHT22;37694;51.748;14.326;2024-03-23T01:13:03;24.10;44.50
51613;DHT22;37694;51.748;14.326;2024-03-23T01:15:28;24.10;44.50
51613;DHT22;37694;51.748;14.326;2024-03-23T01:17:54;24.10;44.40
51613;DHT22;37694;51.748;14.326;2024-03-23T01:20:20;24.10;44.40
51613;DHT22;37694;51.748;14.326;2024-03-23T01:22:46;24.10;44.60
51613;DHT22;37694;51.748;14.326;2024-03-23T01:25:11;24.00;44.60
51613;DHT22;37694;51.748;14.326;2024-03-23T01:27:37;24.00;44.40
51613;DHT22;37694;51.748;14.326;2024-03-23T01:30:03;24.00;44.60
51613;DHT22;37694;51.748;14.326;2024-03-23T01:32:28;24.10;44.80
51613;DHT22;37694;51.748;14.326;2024-03-23T01:34:54;24.00;44.90
51613;DHT22;37694;51.748;14.326;2024-03-23T01:37:20;24.00;44.90
51613;DHT22;37694;51.748;14.326;2024-03-23T01:39:45;24.00;44.80
51613;DHT22;37694;51.748;14.326;2024-03-23T01:42:11;24.00;44.60
51613;DHT22;37694;51.748;14.326;2024-03-23T01:44:37;24.00;44.50
51613;DHT22;37694;51.748;14.326;2024-03-23T01:47:03;23.90;44.30
51613;DHT22;37694;51.748;14.326;2024-03-23T01:49:29;23.90;44.50
51613;DHT22;37694;51.748;14.326;2024-03-23T01:51:55;23.90;44.30
51613;DHT22;37694;51.748;14.326;2024-03-23T01:54:21;23.90;44.30
51613;DHT22;37694;51.748;14.326;2024-03-23T01:56:47;23.90;44.30
51613;DHT22;37694;51.748;14.326;2024-03-23T01:59:14;23.90;44.30
51613;DHT22;37694;51.748;14.326;2024-03-23T02:01:40;23.90;44.30
51613;DHT22;37694;51.748;14.326;2024-03-23T02:04:06;23.90;44.30
51613;DHT22;37694;51.748;14.326;2024-03-23T02:06:34;23.90;44.30
51613;DHT22;37694;51.748;14.326;2024-03-23T02:09:00;23.90;44.50
51613;DHT22;37694;51.748;14.326;2024-03-23T02:11:26;23.90;44.50
51613;DHT22;37694;51.748;14.326;2024-03-23T02:13:51;23.90;44.50
51613;DHT22;37694;51.748;14.326;2024-03-23T02:16:17;23.90;44.70
51613;DHT22;37694;51.748;14.326;2024-03-23T02:18:42;23.90;44.60
51613;DHT22;37694;51.748;14.326;2024-03-23T02:21:08;23.80;44.60
51613;DHT22;37694;51.748;14.326;2024-03-23T02:23:34;23.80;44.90
51613;DHT22;37694;51.748;14.326;2024-03-23T02:25:59;23.80;44.60
51613;DHT22;37694;51.748;14.326;2024-03-23T02:28:25;23.80;44.60
51613;DHT22;37694;51.748;14.326;2024-03-23T02:30:51;23.80;44.10
51613;DHT22;37694;51.748;14.326;2024-03-23T02:33:17;23.90;44.40
51613;DHT22;37694;51.748;14.326;2024-03-23T02:35:47;23.80;44.60
51613;DHT22;37694;51.748;14.326;2024-03-23T02:38:12;23.80;44.50
51613;DHT22;37694;51.748;14.326;2024-03-23T02:40:38;23.80;44.50
51613;DHT22;37694;51.748;14.326;2024-03-23T02:43:07;23.80;44.60
51613;DHT22;37694;51.748;14.326;2024-03-23T02:45:33;23.80;44.50
51613;DHT22;37694;51.748;14.326;2024-03-23T02:47:58;23.80;44.50
51613;DHT22;37694;51.748;14.326;2024-03-23T02:50:24;23.80;44.50
51613;DHT22;37694;51.748;14.326;2024-03-23T02:52:50;23.80;44.50
51613;DHT22;37694;51.748;14.326;2024-03-23T02:55:15;23.70;44.50
51613;DHT22;37694;51.748;14.326;2024-03-23T02:57:41;23.70;45.40
51613;DHT22;37694;51.748;14.326;2024-03-23T03:00:07;23.70;44.60
51613;DHT22;37694;51.748;14.326;2024-03-23T03:02:34;23.70;44.70
51613;DHT22;37694;51.748;14.326;2024-03-23T03:05:00;23.70;44.70
51613;DHT22;37694;51.748;14.326;2024-03-23T03:07:26;23.70;44.90
51613;DHT22;37694;51.748;14.326;2024-03-23T03:09:51;23.70;44.60
51613;DHT22;37694;51.748;14.326;2024-03-23T03:12:17;23.70;44.60
51613;DHT22;37694;51.748;14.326;2024-03-23T03:14:43;23.70;44.60
51613;DHT22;37694;51.748;14.326;2024-03-23T03:17:08;23.70;44.60
51613;DHT22;37694;51.748;14.326;2024-03-23T03:19:34;23.70;44.50
51613;DHT22;37694;51.748;14.326;2024-03-23T03:22:00;23.70;44.50
51613;DHT22;37694;51.748;14.326;2024-03-23T03:24:25;23.60;44.50
51613;DHT22;37694;51.748;14.326;2024-03-23T03:26:51;23.60;44.40
51613;DHT22;37694;51.748;14.326;2024-03-23T03:29:17;23.70;44.60
51613;DHT22;37694;51.748;14.326;2024-03-23T03:31:43;23.60;44.30
51613;DHT22;37694;51.748;14.326;2024-03-23T03:34:09;23.60;44.30
51613;DHT22;37694;51.748;14.326;2024-03-23T03:36:35;23.60;44.20
51613;DHT22;37694;51.748;14.326;2024-03-23T03:39:00;23.60;44.30
51613;DHT22;37694;51.748;14.326;2024-03-23T03:41:28;23.60;44.30
51613;DHT22;37694;51.748;14.326;2024-03-23T03:43:54;23.60;43.90
51613;DHT22;37694;51.748;14.326;2024-03-23T03:46:20;23.60;44.20
51613;DHT22;37694;51.748;14.326;2024-03-23T03:48:46;23.60;44.20
51613;DHT22;37694;51.748;14.326;2024-03-23T03:51:13;23.60;44.50
51613;DHT22;37694;51.748;14.326;2024-03-23T03:53:39;23.60;44.50
51613;DHT22;37694;51.748;14.326;2024-03-23T03:56:05;23.60;44.50
51613;DHT22;37694;51.748;14.326;2024-03-23T03:58:31;23.60;44.50
51613;DHT22;37694;51.748;14.326;2024-03-23T04:00:56;23.60;44.60
51613;DHT22;37694;51.748;14.326;2024-03-23T04:03:22;23.60;44.50
51613;DHT22;37694;51.748;14.326;2024-03-23T04:05:54;23.50;44.60
51613;DHT22;37694;51.748;14.326;2024-03-23T04:08:20;23.50;44.60
51613;DHT22;37694;51.748;14.326;2024-03-23T04:10:46;23.50;44.60
51613;DHT22;37694;51.748;14.326;2024-03-23T04:13:13;23.50;44.50
51613;DHT22;37694;51.748;14.326;2024-03-23T04:15:39;23.50;44.50
51613;DHT22;37694;51.748;14.326;2024-03-23T04:18:05;23.50;44.40
51613;DHT22;37694;51.748;14.326;2024-03-23T04:20:31;23.50;44.30
51613;DHT22;37694;51.748;14.326;2024-03-23T04:22:58;23.50;44.30
51613;DHT22;37694;51.748;14.326;2024-03-23T04:25:23;23.50;44.20
51613;DHT22;37694;51.748;14.326;2024-03-23T04:27:49;23.50;44.20
51613;DHT22;37694;51.748;14.326;2024-03-23T04:30:15;23.50;44.30
51613;DHT22;37694;51.748;14.326;2024-03-23T04:32:41;23.50;44.40
51613;DHT22;37694;51.748;14.326;2024-03-23T04:35:07;23.50;44.50
51613;DHT22;37694;51.748;14.326;2024-03-23T04:37:36;23.40;44.40
51613;DHT22;37694;51.748;14.326;2024-03-23T04:40:03;23.50;44.50
51613;DHT22;37694;51.748;14.326;2024-03-23T04:42:29;23.40;44.70
51613;DHT22;37694;51.748;14.326;2024-03-23T04:44:55;23.40;44.50
51613;DHT22;37694;51.748;14.326;2024-03-23T04:47:20;23.40;44.90
51613;DHT22;37694;51.748;14.326;2024-03-23T04:49:46;23.40;45.30
51613;DHT22;37694;51.748;14.326;2024-03-23T04:52:12;23.40;45.20
51613;DHT22;37694;51.748;14.326;2024-03-23T04:54:38;23.40;45.30
51613;DHT22;37694;51.748;14.326;2024-03-23T04:57:06;23.40;45.50
51613;DHT22;37694;51.748;14.326;2024-03-23T04:59:32;23.50;45.80
51613;DHT22;37694;51.748;14.326;2024-03-23T05:01:57;23.40;45.80
51613;DHT22;37694;51.748;14.326;2024-03-23T05:04:23;23.40;45.40
51613;DHT22;37694;51.748;14.326;2024-03-23T05:06:49;23.50;45.00
51613;DHT22;37694;51.748;14.326;2024-03-23T05:09:14;23.50;45.30
51613;DHT22;37694;51.748;14.326;2024-03-23T05:11:41;23.50;45.30
51613;DHT22;37694;51.748;14.326;2024-03-23T05:14:14;23.60;45.30
51613;DHT22;37694;51.748;14.326;2024-03-23T05:16:40;23.60;45.10
51613;DHT22;37694;51.748;14.326;2024-03-23T05:19:06;23.70;45.00
51613;DHT22;37694;51.748;14.326;2024-03-23T05:21:31;23.70;44.90
51613;DHT22;37694;51.748;14.326;2024-03-23T05:23:57;23.70;44.90
51613;DHT22;37694;51.748;14.326;2024-03-23T05:26:23;23.80;44.90
51613;DHT22;37694;51.748;14.326;2024-03-23T05:28:49;23.90;44.80
51613;DHT22;37694;51.748;14.326;2024-03-23T05:31:25;23.90;44.70
51613;DHT22;37694;51.748;14.326;2024-03-23T05:33:50;24.00;44.60
51613;DHT22;37694;51.748;14.326;2024-03-23T05:36:17;24.10;44.50
51613;DHT22;37694;51.748;14.326;2024-03-23T05:38:42;24.10;44.40
51613;DHT22;37694;51.748;14.326;2024-03-23T05:41:08;24.20;44.40
51613;DHT22;37694;51.748;14.326;2024-03-23T05:43:34;24.20;44.30
51613;DHT22;37694;51.748;14.326;2024-03-23T05:46:00;24.30;44.40
51613;DHT22;37694;51.748;14.326;2024-03-23T05:48:27;24.30;45.20
51613;DHT22;37694;51.748;14.326;2024-03-23T05:50:53;24.30;44.30
51613;DHT22;37694;51.748;14.326;2024-03-23T05:53:19;24.30;44.30
51613;DHT22;37694;51.748;14.326;2024-03-23T05:55:48;24.40;44.40
51613;DHT22;37694;51.748;14.326;2024-03-23T05:58:17;24.40;44.20
51613;DHT22;37694;51.748;14.326;2024-03-23T06:00:44;24.40;44.20
51613;DHT22;37694;51.748;14.326;2024-03-23T06:03:10;24.40;44.20
51613;DHT22;37694;51.748;14.326;2024-03-23T06:05:39;24.50;44.20
51613;DHT22;37694;51.748;14.326;2024-03-23T06:08:05;24.40;44.20
51613;DHT22;37694;51.748;14.326;2024-03-23T06:10:32;24.50;44.30
51613;DHT22;37694;51.748;14.326;2024-03-23T06:12:57;24.50;44.30
51613;DHT22;37694;51.748;14.326;2024-03-23T06:15:24;24.50;44.30
51613;DHT22;37694;51.748;14.326;2024-03-23T06:17:50;24.50;44.10
51613;DHT22;37694;51.748;14.326;2024-03-23T06:20:16;24.50;44.20
51613;DHT22;37694;51.748;14.326;2024-03-23T06:22:42;24.40;44.00
51613;DHT22;37694;51.748;14.326;2024-03-23T06:25:08;24.50;44.00
51613;DHT22;37694;51.748;14.326;2024-03-23T06:27:34;24.40;44.00
51613;DHT22;37694;51.748;14.326;2024-03-23T06:30:00;24.40;44.00
51613;DHT22;37694;51.748;14.326;2024-03-23T06:32:25;24.40;44.00
51613;DHT22;37694;51.748;14.326;2024-03-23T06:34:51;24.40;44.00
51613;DHT22;37694;51.748;14.326;2024-03-23T06:37:17;24.40;44.80
51613;DHT22;37694;51.748;14.326;2024-03-23T06:39:43;24.40;44.00
51613;DHT22;37694;51.748;14.326;2024-03-23T06:42:08;24.40;44.00
51613;DHT22;37694;51.748;14.326;2024-03-23T06:44:34;24.40;44.10
51613;DHT22;37694;51.748;14.326;2024-03-23T06:47:00;24.40;44.10
51613;DHT22;37694;51.748;14.326;2024-03-23T06:49:25;24.30;44.10
51613;DHT22;37694;51.748;14.326;2024-03-23T06:51:51;24.30;44.10
51613;DHT22;37694;51.748;14.326;2024-03-23T06:54:18;24.30;44.10
51613;DHT22;37694;51.748;14.326;2024-03-23T06:56:44;24.30;44.20
51613;DHT22;37694;51.748;14.326;2024-03-23T06:59:10;24.30;43.90
51613;DHT22;37694;51.748;14.326;2024-03-23T07:01:36;24.30;43.80
51613;DHT22;37694;51.748;14.326;2024-03-23T07:04:02;24.30;43.80
51613;DHT22;37694;51.748;14.326;2024-03-23T07:06:29;24.30;43.80
51613;DHT22;37694;51.748;14.326;2024-03-23T07:08:55;24.30;44.00
51613;DHT22;37694;51.748;14.326;2024-03-23T07:11:21;24.20;43.80
51613;DHT22;37694;51.748;14.326;2024-03-23T07:13:50;24.20;43.80
51613;DHT22;37694;51.748;14.326;2024-03-23T07:16:16;24.20;43.90
51613;DHT22;37694;51.748;14.326;2024-03-23T07:18:42;24.20;44.00
51613;DHT22;37694;51.748;14.326;2024-03-23T07:21:07;24.20;44.00
51613;DHT22;37694;51.748;14.326;2024-03-23T07:23:33;24.20;44.00
51613;DHT22;37694;51.748;14.326;2024-03-23T07:26:00;24.10;43.90
51613;DHT22;37694;51.748;14.326;2024-03-23T07:28:26;24.10;43.90
51613;DHT22;37694;51.748;14.326;2024-03-23T07:31:07;24.10;43.90
51613;DHT22;37694;51.748;14.326;2024-03-23T07:33:41;24.10;43.80
51613;DHT22;37694;51.748;14.326;2024-03-23T07:36:06;24.10;43.90
51613;DHT22;37694;51.748;14.326;2024-03-23T07:38:32;24.10;43.90
51613;DHT22;37694;51.748;14.326;2024-03-23T07:41:09;24.10;43.90
51613;DHT22;37694;51.748;14.326;2024-03-23T07:43:38;24.10;43.90
51613;DHT22;37694;51.748;14.326;2024-03-23T07:46:04;24.10;43.90
51613;DHT22;37694;51.748;14.326;2024-03-23T07:48:31;24.10;43.90
51613;DHT22;37694;51.748;14.326;2024-03-23T07:51:03;24.10;43.90
51613;DHT22;37694;51.748;14.326;2024-03-23T07:53:31;24.00;43.80
51613;DHT22;37694;51.748;14.326;2024-03-23T07:58:27;24.00;44.40
51613;DHT22;37694;51.748;14.326;2024-03-23T08:00:54;24.00;44.40
51613;DHT22;37694;51.748;14.326;2024-03-23T08:03:19;24.00;44.20
51613;DHT22;37694;51.748;14.326;2024-03-23T08:05:45;24.00;44.90
51613;DHT22;37694;51.748;14.326;2024-03-23T08:08:11;24.00;44.10
51613;DHT22;37694;51.748;14.326;2024-03-23T08:10:47;24.00;44.00
51613;DHT22;37694;51.748;14.326;2024-03-23T08:13:13;24.00;45.30
51613;DHT22;37694;51.748;14.326;2024-03-23T08:15:39;24.00;44.50
51613;DHT22;37694;51.748;14.326;2024-03-23T08:18:04;24.00;44.80
51613;DHT22;37694;51.748;14.326;2024-03-23T08:20:30;24.00;44.40
51613;DHT22;37694;51.748;14.326;2024-03-23T08:22:56;24.00;44.80
51613;DHT22;37694;51.748;14.326;2024-03-23T08:25:21;24.00;44.60
51613;DHT22;37694;51.748;14.326;2024-03-23T08:27:47;24.00;44.70
51613;DHT22;37694;51.748;14.326;2024-03-23T08:30:13;24.00;44.90
51613;DHT22;37694;51.748;14.326;2024-03-23T08:32:39;24.00;45.00
51613;DHT22;37694;51.748;14.326;2024-03-23T08:35:05;24.10;45.30
51613;DHT22;37694;51.748;14.326;2024-03-23T08:37:30;24.10;45.00
51613;DHT22;37694;51.748;14.326;2024-03-23T08:39:56;24.10;45.30
51613;DHT22;37694;51.748;14.326;2024-03-23T08:42:22;24.20;45.20
51613;DHT22;37694;51.748;14.326;2024-03-23T08:44:47;24.20;45.50
51613;DHT22;37694;51.748;14.326;2024-03-23T08:47:16;24.20;45.50
51613;DHT22;37694;51.748;14.326;2024-03-23T08:49:42;24.30;45.70
51613;DHT22;37694;51.748;14.326;2024-03-23T08:52:08;24.40;45.80
51613;DHT22;37694;51.748;14.326;2024-03-23T08:54:34;24.40;45.80
51613;DHT22;37694;51.748;14.326;2024-03-23T08:57:00;24.50;45.60
51613;DHT22;37694;51.748;14.326;2024-03-23T08:59:26;24.50;45.50
51613;DHT22;37694;51.748;14.326;2024-03-23T09:01:52;24.50;45.70
51613;DHT22;37694;51.748;14.326;2024-03-23T09:04:18;24.60;45.60
51613;DHT22;37694;51.748;14.326;2024-03-23T09:06:43;24.60;46.00
51613;DHT22;37694;51.748;14.326;2024-03-23T09:09:09;24.70;45.60
51613;DHT22;37694;51.748;14.326;2024-03-23T09:11:35;24.60;45.60
51613;DHT22;37694;51.748;14.326;2024-03-23T09:14:01;24.70;45.60
51613;DHT22;37694;51.748;14.326;2024-03-23T09:16:26;24.70;45.60
51613;DHT22;37694;51.748;14.326;2024-03-23T09:18:52;24.70;45.50
51613;DHT22;37694;51.748;14.326;2024-03-23T09:21:18;24.70;45.40
51613;DHT22;37694;51.748;14.326;2024-03-23T09:23:44;24.70;45.40
51613;DHT22;37694;51.748;14.326;2024-03-23T09:26:10;24.70;45.30
51613;DHT22;37694;51.748;14.326;2024-03-23T09:28:36;24.70;45.20
51613;DHT22;37694;51.748;14.326;2024-03-23T09:31:07;24.70;45.30
51613;DHT22;37694;51.748;14.326;2024-03-23T09:33:35;24.70;45.20
51613;DHT22;37694;51.748;14.326;2024-03-23T09:36:04;24.70;45.20
51613;DHT22;37694;51.748;14.326;2024-03-23T09:38:30;24.70;45.20
51613;DHT22;37694;51.748;14.326;2024-03-23T09:40:57;24.70;45.20
51613;DHT22;37694;51.748;14.326;2024-03-23T09:43:23;24.60;45.30
51613;DHT22;37694;51.748;14.326;2024-03-23T09:45:49;24.70;45.60
51613;DHT22;37694;51.748;14.326;2024-03-23T09:48:15;24.60;45.40
51613;DHT22;37694;51.748;14.326;2024-03-23T09:50:42;24.60;45.30
51613;DHT22;37694;51.748;14.326;2024-03-23T09:53:13;24.60;45.20
51613;DHT22;37694;51.748;14.326;2024-03-23T09:55:40;24.60;46.10
51613;DHT22;37694;51.748;14.326;2024-03-23T09:58:06;24.60;45.40
51613;DHT22;37694;51.748;14.326;2024-03-23T10:00:33;24.60;45.40
51613;DHT22;37694;51.748;14.326;2024-03-23T10:02:59;24.50;45.50
51613;DHT22;37694;51.748;14.326;2024-03-23T10:05:28;24.50;45.30
51613;DHT22;37694;51.748;14.326;2024-03-23T10:07:54;24.50;45.50
51613;DHT22;37694;51.748;14.326;2024-03-23T10:10:20;24.50;45.40
51613;DHT22;37694;51.748;14.326;2024-03-23T10:12:49;24.50;45.50
51613;DHT22;37694;51.748;14.326;2024-03-23T10:15:25;24.50;45.00
51613;DHT22;37694;51.748;14.326;2024-03-23T10:17:51;24.50;45.20
51613;DHT22;37694;51.748;14.326;2024-03-23T10:20:21;24.50;45.20
51613;DHT22;37694;51.748;14.326;2024-03-23T10:22:49;24.50;45.40
51613;DHT22;37694;51.748;14.326;2024-03-23T10:25:15;24.50;45.20
51613;DHT22;37694;51.748;14.326;2024-03-23T10:27:41;24.40;45.00
51613;DHT22;37694;51.748;14.326;2024-03-23T10:30:13;24.40;44.80
51613;DHT22;37694;51.748;14.326;2024-03-23T10:32:42;24.40;45.00
51613;DHT22;37694;51.748;14.326;2024-03-23T10:35:17;24.40;44.60
51613;DHT22;37694;51.748;14.326;2024-03-23T10:37:51;24.40;45.00
51613;DHT22;37694;51.748;14.326;2024-03-23T10:40:17;24.40;44.80
51613;DHT22;37694;51.748;14.326;2024-03-23T10:42:44;24.40;44.90
51613;DHT22;37694;51.748;14.326;2024-03-23T10:45:10;24.40;44.90
51613;DHT22;37694;51.748;14.326;2024-03-23T10:47:37;24.40;44.90
51613;DHT22;37694;51.748;14.326;2024-03-23T10:50:06;24.30;44.40
51613;DHT22;37694;51.748;14.326;2024-03-23T10:52:36;24.30;44.50
51613;DHT22;37694;51.748;14.326;2024-03-23T10:55:05;24.40;44.90
51613;DHT22;37694;51.748;14.326;2024-03-23T10:57:40;24.30;44.80
51613;DHT22;37694;51.748;14.326;2024-03-23T11:00:07;24.30;44.70
51613;DHT22;37694;51.748;14.326;2024-03-23T11:02:34;24.30;44.60
51613;DHT22;37694;51.748;14.326;2024-03-23T11:04:59;24.30;44.60
51613;DHT22;37694;51.748;14.326;2024-03-23T11:07:31;24.30;44.50
51613;DHT22;37694;51.748;14.326;2024-03-23T11:09:57;24.30;44.70
51613;DHT22;37694;51.748;14.326;2024-03-23T11:17:22;24.30;44.50
51613;DHT22;37694;51.748;14.326;2024-03-23T11:19:59;24.30;44.60
51613;DHT22;37694;51.748;14.326;2024-03-23T11:27:44;24.30;44.00
51613;DHT22;37694;51.748;14.326;2024-03-23T11:30:16;24.30;44.70
51613;DHT22;37694;51.748;14.326;2024-03-23T11:32:52;24.30;44.70
51613;DHT22;37694;51.748;14.326;2024-03-23T11:35:33;24.30;44.90
51613;DHT22;37694;51.748;14.326;2024-03-23T11:38:09;24.30;45.40
51613;DHT22;37694;51.748;14.326;2024-03-23T11:40:41;24.30;45.60
51613;DHT22;37694;51.748;14.326;2024-03-23T11:43:13;24.30;45.80
51613;DHT22;37694;51.748;14.326;2024-03-23T11:45:47;24.30;45.60
51613;DHT22;37694;51.748;14.326;2024-03-23T11:48:17;24.40;46.10
51613;DHT22;37694;51.748;14.326;2024-03-23T11:50:45;24.40;46.10
51613;DHT22;37694;51.748;14.326;2024-03-23T11:55:50;24.40;48.40
51613;DHT22;37694;51.748;14.326;2024-03-23T11:58:17;24.50;49.70
51613;DHT22;37694;51.748;14.326;2024-03-23T12:03:18;24.50;49.30
51613;DHT22;37694;51.748;14.326;2024-03-23T12:05:50;24.50;49.10
51613;DHT22;37694;51.748;14.326;2024-03-23T12:08:22;24.50;49.30
51613;DHT22;37694;51.748;14.326;2024-03-23T12:10:51;24.50;50.20
51613;DHT22;37694;51.748;14.326;2024-03-23T12:13:18;24.50;50.40
51613;DHT22;37694;51.748;14.326;2024-03-23T12:15:45;24.50;50.20
51613;DHT22;37694;51.748;14.326;2024-03-23T12:18:12;24.50;49.80
51613;DHT22;37694;51.748;14.326;2024-03-23T12:20:38;24.60;49.70
51613;DHT22;37694;51.748;14.326;2024-03-23T12:23:11;24.60;49.70
51613;DHT22;37694;51.748;14.326;2024-03-23T12:25:40;24.60;49.40
51613;DHT22;37694;51.748;14.326;2024-03-23T12:28:07;24.60;49.50
51613;DHT22;37694;51.748;14.326;2024-03-23T12:30:40;24.60;49.40
51613;DHT22;37694;51.748;14.326;2024-03-23T12:33:07;24.60;49.00
51613;DHT22;37694;51.748;14.326;2024-03-23T12:35:33;24.60;49.20
51613;DHT22;37694;51.748;14.326;2024-03-23T12:37:59;24.60;49.30
51613;DHT22;37694;51.748;14.326;2024-03-23T12:40:25;24.60;49.30
51613;DHT22;37694;51.748;14.326;2024-03-23T12:42:50;24.60;48.90
51613;DHT22;37694;51.748;14.326;2024-03-23T12:45:16;24.60;49.20
51613;DHT22;37694;51.748;14.326;2024-03-23T12:47:42;24.70;48.30
51613;DHT22;37694;51.748;14.326;2024-03-23T12:50:08;24.60;48.10
51613;DHT22;37694;51.748;14.326;2024-03-23T12:52:35;24.60;47.90
51613;DHT22;37694;51.748;14.326;2024-03-23T12:55:01;24.60;48.90
51613;DHT22;37694;51.748;14.326;2024-03-23T12:57:27;24.60;48.20
51613;DHT22;37694;51.748;14.326;2024-03-23T12:59:53;24.60;48.10
51613;DHT22;37694;51.748;14.326;2024-03-23T13:02:20;24.60;48.10
51613;DHT22;37694;51.748;14.326;2024-03-23T13:04:55;24.60;48.10
51613;DHT22;37694;51.748;14.326;2024-03-23T13:07:22;24.70;47.70
51613;DHT22;37694;51.748;14.326;2024-03-23T13:09:51;24.60;47.60
51613;DHT22;37694;51.748;14.326;2024-03-23T13:12:20;24.50;47.30
51613;DHT22;37694;51.748;14.326;2024-03-23T13:14:47;24.50;47.50
51613;DHT22;37694;51.748;14.326;2024-03-23T13:17:12;24.40;47.60
51613;DHT22;37694;51.748;14.326;2024-03-23T13:19:38;24.40;47.60
51613;DHT22;37694;51.748;14.326;2024-03-23T13:22:05;24.30;47.70
51613;DHT22;37694;51.748;14.326;2024-03-23T13:24:31;24.30;47.60
51613;DHT22;37694;51.748;14.326;2024-03-23T13:26:57;24.30;47.60
51613;DHT22;37694;51.748;14.326;2024-03-23T13:29:23;24.30;47.60
51613;DHT22;37694;51.748;14.326;2024-03-23T13:31:50;24.30;47.60
51613;DHT22;37694;51.748;14.326;2024-03-23T13:34:16;24.30;47.50
51613;DHT22;37694;51.748;14.326;2024-03-23T13:36:43;24.30;47.40
51613;DHT22;37694;51.748;14.326;2024-03-23T13:39:10;24.30;47.40
51613;DHT22;37694;51.748;14.326;2024-03-23T13:41:40;24.40;47.40
51613;DHT22;37694;51.748;14.326;2024-03-23T13:44:09;24.40;47.40
51613;DHT22;37694;51.748;14.326;2024-03-23T13:46:39;24.40;47.30
51613;DHT22;37694;51.748;14.326;2024-03-23T13:49:10;24.40;47.40
51613;DHT22;37694;51.748;14.326;2024-03-23T13:51:38;24.30;47.20
51613;DHT22;37694;51.748;14.326;2024-03-23T13:54:03;24.40;47.20
51613;DHT22;37694;51.748;14.326;2024-03-23T13:56:29;24.40;47.20
51613;DHT22;37694;51.748;14.326;2024-03-23T13:58:55;24.40;47.10
51613;DHT22;37694;51.748;14.326;2024-03-23T14:01:22;24.40;47.10
51613;DHT22;37694;51.748;14.326;2024-03-23T14:03:48;24.40;47.10
51613;DHT22;37694;51.748;14.326;2024-03-23T14:06:13;24.50;47.20
51613;DHT22;37694;51.748;14.326;2024-03-23T14:08:39;24.50;47.10
51613;DHT22;37694;51.748;14.326;2024-03-23T14:11:05;24.50;47.10
51613;DHT22;37694;51.748;14.326;2024-03-23T14:13:31;24.50;47.20
51613;DHT22;37694;51.748;14.326;2024-03-23T14:15:58;24.40;47.10
51613;DHT22;37694;51.748;14.326;2024-03-23T14:18:23;24.50;47.00
51613;DHT22;37694;51.748;14.326;2024-03-23T14:20:50;24.60;46.90
51613;DHT22;37694;51.748;14.326;2024-03-23T14:23:16;24.70;46.60
51613;DHT22;37694;51.748;14.326;2024-03-23T14:25:42;24.70;46.60
51613;DHT22;37694;51.748;14.326;2024-03-23T14:28:08;24.80;46.40
51613;DHT22;37694;51.748;14.326;2024-03-23T14:30:41;24.80;46.40
51613;DHT22;37694;51.748;14.326;2024-03-23T14:33:07;24.90;46.30
51613;DHT22;37694;51.748;14.326;2024-03-23T14:35:33;24.90;46.30
51613;DHT22;37694;51.748;14.326;2024-03-23T14:37:59;24.90;46.60
51613;DHT22;37694;51.748;14.326;2024-03-23T14:40:25;24.90;46.30
51613;DHT22;37694;51.748;14.326;2024-03-23T14:42:56;24.90;46.20
51613;DHT22;37694;51.748;14.326;2024-03-23T14:45:22;24.90;46.00
51613;DHT22;37694;51.748;14.326;2024-03-23T14:47:50;24.90;46.00
51613;DHT22;37694;51.748;14.326;2024-03-23T14:50:16;24.90;45.60
51613;DHT22;37694;51.748;14.326;2024-03-23T14:52:45;24.90;45.40
51613;DHT22;37694;51.748;14.326;2024-03-23T14:55:12;24.90;45.40
51613;DHT22;37694;51.748;14.326;2024-03-23T14:57:38;24.90;45.90
51613;DHT22;37694;51.748;14.326;2024-03-23T15:00:08;24.90;46.30
51613;DHT22;37694;51.748;14.326;2024-03-23T15:02:36;24.90;46.20
51613;DHT22;37694;51.748;14.326;2024-03-23T15:05:02;24.90;46.00
51613;DHT22;37694;51.748;14.326;2024-03-23T15:07:32;24.90;46.80
51613;DHT22;37694;51.748;14.326;2024-03-23T15:09:58;25.00;45.80
51613;DHT22;37694;51.748;14.326;2024-03-23T15:12:24;25.00;46.00
51613;DHT22;37694;51.748;14.326;2024-03-23T15:14:49;25.00;46.00
51613;DHT22;37694;51.748;14.326;2024-03-23T15:17:15;25.00;46.20
51613;DHT22;37694;51.748;14.326;2024-03-23T15:19:41;25.00;45.90
51613;DHT22;37694;51.748;14.326;2024-03-23T15:22:09;25.00;46.30
51613;DHT22;37694;51.748;14.326;2024-03-23T15:24:35;25.00;46.30
51613;DHT22;37694;51.748;14.326;2024-03-23T15:27:02;25.00;45.90
51613;DHT22;37694;51.748;14.326;2024-03-23T15:29:28;25.10;46.60
51613;DHT22;37694;51.748;14.326;2024-03-23T15:31:54;25.00;46.00
51613;DHT22;37694;51.748;14.326;2024-03-23T15:34:20;25.10;46.40
51613;DHT22;37694;51.748;14.326;2024-03-23T15:36:49;25.10;46.40
51613;DHT22;37694;51.748;14.326;2024-03-23T15:39:18;25.10;45.80
51613;DHT22;37694;51.748;14.326;2024-03-23T15:41:47;25.10;45.90
51613;DHT22;37694;51.748;14.326;2024-03-23T15:44:13;25.10;45.80
51613;DHT22;37694;51.748;14.326;2024-03-23T15:46:39;25.10;45.70
51613;DHT22;37694;51.748;14.326;2024-03-23T15:49:05;25.10;45.40
51613;DHT22;37694;51.748;14.326;2024-03-23T15:51:31;25.10;45.40
51613;DHT22;37694;51.748;14.326;2024-03-23T15:54:02;25.10;45.50
51613;DHT22;37694;51.748;14.326;2024-03-23T15:56:31;25.10;45.40
51613;DHT22;37694;51.748;14.326;2024-03-23T15:58:57;25.10;45.50
51613;DHT22;37694;51.748;14.326;2024-03-23T16:01:31;25.10;45.60
51613;DHT22;37694;51.748;14.326;2024-03-23T16:03:59;25.10;45.40
51613;DHT22;37694;51.748;14.326;2024-03-23T16:06:24;25.10;45.30
51613;DHT22;37694;51.748;14.326;2024-03-23T16:08:50;25.10;45.30
51613;DHT22;37694;51.748;14.326;2024-03-23T16:11:16;25.20;45.20
51613;DHT22;37694;51.748;14.326;2024-03-23T16:13:43;25.10;44.80
51613;DHT22;37694;51.748;14.326;2024-03-23T16:16:09;25.10;44.80
51613;DHT22;37694;51.748;14.326;2024-03-23T16:18:37;25.20;45.00
51613;DHT22;37694;51.748;14.326;2024-03-23T16:21:05;25.10;45.00